sensor_id;sensor_type;location;lat;lon;timestamp;temperature;humidity
75471;HTU21D;64051;46.320;48.028;2023-09-19T00:00:39;14.68;62.98
75471;HTU21D;64051;46.320;48.028;2023-09-19T00:03:07;14.66;63.06
75471;HTU21D;64051;46.320;48.028;2023-09-19T00:05:34;14.65;63.13
75471;HTU21D;64051;46.320;48.028;2023-09-19T00:08:00;14.67;63.14
75471;HTU21D;64051;46.320;48.028;2023-09-19T00:10:27;14.68;63.15
75471;HTU21D;64051;46.320;48.028;2023-09-19T00:12:58;14.70;63.17
75471;HTU21D;64051;46.320;48.028;2023-09-19T00:15:35;14.71;63.18
75471;HTU21D;64051;46.320;48.028;2023-09-19T00:18:01;14.72;63.17
75471;HTU21D;64051;46.320;48.028;2023-09-19T00:20:27;14.75;63.21
75471;HTU21D;64051;46.320;48.028;2023-09-19T00:22:55;14.77;63.17
75471;HTU21D;64051;46.320;48.028;2023-09-19T00:25:21;14.77;63.12
75471;HTU21D;64051;46.320;48.028;2023-09-19T00:27:47;14.74;63.11
75471;HTU21D;64051;46.320;48.028;2023-09-19T00:30:15;14.71;63.10
75471;HTU21D;64051;46.320;48.028;2023-09-19T00:32:42;14.68;63.17
75471;HTU21D;64051;46.320;48.028;2023-09-19T00:35:08;14.64;63.23
75471;HTU21D;64051;46.320;48.028;2023-09-19T00:37:37;14.62;63.27
75471;HTU21D;64051;46.320;48.028;2023-09-19T00:40:10;14.56;63.34
75471;HTU21D;64051;46.320;48.028;2023-09-19T00:42:45;14.53;63.40
75471;HTU21D;64051;46.320;48.028;2023-09-19T00:45:12;14.49;63.44
75471;HTU21D;64051;46.320;48.028;2023-09-19T00:47:44;14.43;63.51
75471;HTU21D;64051;46.320;48.028;2023-09-19T00:50:13;14.41;63.53
75471;HTU21D;64051;46.320;48.028;2023-09-19T00:52:42;14.36;63.60
75471;HTU21D;64051;46.320;48.028;2023-09-19T00:55:09;14.33;63.64
75471;HTU21D;64051;46.320;48.028;2023-09-19T00:57:37;14.28;63.74
75471;HTU21D;64051;46.320;48.028;2023-09-19T01:00:06;14.25;63.85
75471;HTU21D;64051;46.320;48.028;2023-09-19T01:02:34;14.24;63.92
75471;HTU21D;64051;46.320;48.028;2023-09-19T01:05:01;14.25;63.95
75471;HTU21D;64051;46.320;48.028;2023-09-19T01:07:28;14.25;63.95
75471;HTU21D;64051;46.320;48.028;2023-09-19T01:10:03;14.23;63.93
75471;HTU21D;64051;46.320;48.028;2023-09-19T01:20:40;14.13;64.24
75471;HTU21D;64051;46.320;48.028;2023-09-19T01:26:16;14.11;64.21
75471;HTU21D;64051;46.320;48.028;2023-09-19T01:31:37;14.09;64.32
75471;HTU21D;64051;46.320;48.028;2023-09-19T01:34:03;14.08;64.35
75471;HTU21D;64051;46.320;48.028;2023-09-19T01:36:35;14.10;64.46
75471;HTU21D;64051;46.320;48.028;2023-09-19T01:39:05;14.15;64.51
75471;HTU21D;64051;46.320;48.028;2023-09-19T01:44:44;14.28;64.47
75471;HTU21D;64051;46.320;48.028;2023-09-19T01:47:33;14.35;64.50
75471;HTU21D;64051;46.320;48.028;2023-09-19T01:50:13;14.41;64.40
75471;HTU21D;64051;46.320;48.028;2023-09-19T01:52:49;14.44;64.28
75471;HTU21D;64051;46.320;48.028;2023-09-19T01:55:19;14.44;64.21
75471;HTU21D;64051;46.320;48.028;2023-09-19T02:00:27;14.45;64.19
75471;HTU21D;64051;46.320;48.028;2023-09-19T02:02:56;14.47;64.22
75471;HTU21D;64051;46.320;48.028;2023-09-19T02:05:26;14.47;64.20
75471;HTU21D;64051;46.320;48.028;2023-09-19T02:07:53;14.44;64.20
75471;HTU21D;64051;46.320;48.028;2023-09-19T02:10:19;14.42;64.27
75471;HTU21D;64051;46.320;48.028;2023-09-19T02:12:45;14.42;64.35
75471;HTU21D;64051;46.320;48.028;2023-09-19T02:15:13;14.45;64.41
75471;HTU21D;64051;46.320;48.028;2023-09-19T02:17:45;14.47;64.35
75471;HTU21D;64051;46.320;48.028;2023-09-19T02:20:12;14.43;64.34
75471;HTU21D;64051;46.320;48.028;2023-09-19T02:22:43;14.42;64.32
75471;HTU21D;64051;46.320;48.028;2023-09-19T02:25:10;14.38;64.34
75471;HTU21D;64051;46.320;48.028;2023-09-19T02:27:36;14.34;64.38
75471;HTU21D;64051;46.320;48.028;2023-09-19T02:30:04;14.29;64.42
75471;HTU21D;64051;46.320;48.028;2023-09-19T02:32:31;14.25;64.48
75471;HTU21D;64051;46.320;48.028;2023-09-19T02:35:01;14.20;64.54
75471;HTU21D;64051;46.320;48.028;2023-09-19T02:37:29;14.17;64.64
75471;HTU21D;64051;46.320;48.028;2023-09-19T02:39:55;14.14;64.73
75471;HTU21D;64051;46.320;48.028;2023-09-19T02:42:21;14.12;64.81
75471;HTU21D;64051;46.320;48.028;2023-09-19T02:44:48;14.14;64.98
75471;HTU21D;64051;46.320;48.028;2023-09-19T02:47:14;14.19;65.01
75471;HTU21D;64051;46.320;48.028;2023-09-19T02:49:40;14.24;65.06
75471;HTU21D;64051;46.320;48.028;2023-09-19T02:52:09;14.30;65.02
75471;HTU21D;64051;46.320;48.028;2023-09-19T02:54:37;14.36;64.99
75471;HTU21D;64051;46.320;48.028;2023-09-19T02:57:03;14.40;64.94
75471;HTU21D;64051;46.320;48.028;2023-09-19T02:59:32;14.45;64.88
75471;HTU21D;64051;46.320;48.028;2023-09-19T03:01:58;14.48;64.88
75471;HTU21D;64051;46.320;48.028;2023-09-19T03:04:25;14.51;64.96
75471;HTU21D;64051;46.320;48.028;2023-09-19T03:06:52;14.59;65.06
75471;HTU21D;64051;46.320;48.028;2023-09-19T03:09:22;14.69;65.20
75471;HTU21D;64051;46.320;48.028;2023-09-19T03:11:48;14.82;65.26
75471;HTU21D;64051;46.320;48.028;2023-09-19T03:14:15;14.92;65.14
75471;HTU21D;64051;46.320;48.028;2023-09-19T03:16:41;15.02;64.98
75471;HTU21D;64051;46.320;48.028;2023-09-19T03:19:11;15.09;64.91
75471;HTU21D;64051;46.320;48.028;2023-09-19T03:21:37;15.14;64.83
75471;HTU21D;64051;46.320;48.028;2023-09-19T03:24:05;15.18;64.79
75471;HTU21D;64051;46.320;48.028;2023-09-19T03:26:32;15.23;64.79
75471;HTU21D;64051;46.320;48.028;2023-09-19T03:28:59;15.29;64.79
75471;HTU21D;64051;46.320;48.028;2023-09-19T03:31:25;15.34;64.79
75471;HTU21D;64051;46.320;48.028;2023-09-19T03:33:51;15.42;64.79
75471;HTU21D;64051;46.320;48.028;2023-09-19T03:36:21;15.45;64.76
75471;HTU21D;64051;46.320;48.028;2023-09-19T03:38:48;15.53;64.77
75471;HTU21D;64051;46.320;48.028;2023-09-19T03:41:13;15.59;64.79
75471;HTU21D;64051;46.320;48.028;2023-09-19T03:43:42;15.68;64.76
75471;HTU21D;64051;46.320;48.028;2023-09-19T03:46:08;15.73;64.72
75471;HTU21D;64051;46.320;48.028;2023-09-19T03:48:37;15.80;64.69
75471;HTU21D;64051;46.320;48.028;2023-09-19T03:51:02;15.87;64.68
75471;HTU21D;64051;46.320;48.028;2023-09-19T03:53:28;15.95;64.66
75471;HTU21D;64051;46.320;48.028;2023-09-19T03:55:54;16.02;64.65
75471;HTU21D;64051;46.320;48.028;2023-09-19T03:58:21;16.10;64.61
75471;HTU21D;64051;46.320;48.028;2023-09-19T04:00:56;16.19;64.58
75471;HTU21D;64051;46.320;48.028;2023-09-19T04:03:23;16.29;64.57
75471;HTU21D;64051;46.320;48.028;2023-09-19T04:05:57;16.37;0.00
75471;HTU21D;64051;46.320;48.028;2023-09-19T04:08:22;16.46;64.46
75471;HTU21D;64051;46.320;48.028;2023-09-19T04:10:51;16.55;64.37
75471;HTU21D;64051;46.320;48.028;2023-09-19T04:13:18;16.62;64.33
75471;HTU21D;64051;46.320;48.028;2023-09-19T04:15:44;16.69;64.29
75471;HTU21D;64051;46.320;48.028;2023-09-19T04:18:11;16.76;64.27
75471;HTU21D;64051;46.320;48.028;2023-09-19T04:20:38;16.82;64.27
75471;HTU21D;64051;46.320;48.028;2023-09-19T04:23:03;16.92;64.24
75471;HTU21D;64051;46.320;48.028;2023-09-19T04:25:31;17.00;64.20
75471;HTU21D;64051;46.320;48.028;2023-09-19T04:27:57;17.07;64.13
75471;HTU21D;64051;46.320;48.028;2023-09-19T04:30:23;17.13;64.10
75471;HTU21D;64051;46.320;48.028;2023-09-19T04:32:49;17.20;64.08
75471;HTU21D;64051;46.320;48.028;2023-09-19T04:35:16;17.30;64.06
75471;HTU21D;64051;46.320;48.028;2023-09-19T04:37:42;17.36;64.06
75471;HTU21D;64051;46.320;48.028;2023-09-19T04:40:08;17.46;64.00
75471;HTU21D;64051;46.320;48.028;2023-09-19T04:42:43;17.55;63.98
75471;HTU21D;64051;46.320;48.028;2023-09-19T04:45:09;0.00;63.94
75471;HTU21D;64051;46.320;48.028;2023-09-19T04:47:38;17.74;63.87
75471;HTU21D;64051;46.320;48.028;2023-09-19T04:50:08;17.82;0.00
75471;HTU21D;64051;46.320;48.028;2023-09-19T04:52:41;17.94;63.76
75471;HTU21D;64051;46.320;48.028;2023-09-19T04:55:12;18.03;63.72
75471;HTU21D;64051;46.320;48.028;2023-09-19T04:57:52;18.11;63.65
75471;HTU21D;64051;46.320;48.028;2023-09-19T05:00:22;18.19;63.60
75471;HTU21D;64051;46.320;48.028;2023-09-19T05:02:52;18.29;63.57
75471;HTU21D;64051;46.320;48.028;2023-09-19T05:05:27;18.38;63.53
75471;HTU21D;64051;46.320;48.028;2023-09-19T05:07:54;18.46;63.45
75471;HTU21D;64051;46.320;48.028;2023-09-19T05:10:21;18.57;63.42
75471;HTU21D;64051;46.320;48.028;2023-09-19T05:12:47;18.68;63.40
75471;HTU21D;64051;46.320;48.028;2023-09-19T05:15:16;18.80;63.37
75471;HTU21D;64051;46.320;48.028;2023-09-19T05:17:52;18.93;63.31
75471;HTU21D;64051;46.320;48.028;2023-09-19T05:20:20;19.06;63.21
75471;HTU21D;64051;46.320;48.028;2023-09-19T05:23:04;19.18;63.08
75471;HTU21D;64051;46.320;48.028;2023-09-19T05:25:34;19.29;62.99
75471;HTU21D;64051;46.320;48.028;2023-09-19T05:28:03;19.42;62.92
75471;HTU21D;64051;46.320;48.028;2023-09-19T05:30:34;19.55;62.80
75471;HTU21D;64051;46.320;48.028;2023-09-19T05:33:07;19.69;62.70
75471;HTU21D;64051;46.320;48.028;2023-09-19T05:35:33;19.82;62.59
75471;HTU21D;64051;46.320;48.028;2023-09-19T05:37:59;19.95;62.47
75471;HTU21D;64051;46.320;48.028;2023-09-19T05:40:26;20.09;62.32
75471;HTU21D;64051;46.320;48.028;2023-09-19T05:42:52;20.21;62.18
75471;HTU21D;64051;46.320;48.028;2023-09-19T05:45:18;20.32;62.08
75471;HTU21D;64051;46.320;48.028;2023-09-19T05:47:50;20.48;61.93
75471;HTU21D;64051;46.320;48.028;2023-09-19T05:50:17;20.60;61.79
75471;HTU21D;64051;46.320;48.028;2023-09-19T05:52:51;20.76;61.67
75471;HTU21D;64051;46.320;48.028;2023-09-19T05:55:20;20.89;61.61
75471;HTU21D;64051;46.320;48.028;2023-09-19T05:57:49;21.05;61.57
75471;HTU21D;64051;46.320;48.028;2023-09-19T06:00:16;21.19;61.34
75471;HTU21D;64051;46.320;48.028;2023-09-19T06:02:44;21.30;61.15
75471;HTU21D;64051;46.320;48.028;2023-09-19T06:05:10;21.39;61.00
75471;HTU21D;64051;46.320;48.028;2023-09-19T06:07:39;21.48;60.83
75471;HTU21D;64051;46.320;48.028;2023-09-19T06:10:06;21.55;60.70
75471;HTU21D;64051;46.320;48.028;2023-09-19T06:12:53;21.64;60.47
75471;HTU21D;64051;46.320;48.028;2023-09-19T06:15:21;21.72;60.49
75471;HTU21D;64051;46.320;48.028;2023-09-19T06:17:54;21.80;60.38
75471;HTU21D;64051;46.320;48.028;2023-09-19T06:20:25;21.92;60.25
75471;HTU21D;64051;46.320;48.028;2023-09-19T06:22:52;22.03;60.12
75471;HTU21D;64051;46.320;48.028;2023-09-19T06:25:19;22.09;59.90
75471;HTU21D;64051;46.320;48.028;2023-09-19T06:27:48;22.18;59.78
75471;HTU21D;64051;46.320;48.028;2023-09-19T06:30:14;22.25;59.65
75471;HTU21D;64051;46.320;48.028;2023-09-19T06:32:41;22.32;59.51
75471;HTU21D;64051;46.320;48.028;2023-09-19T06:35:14;22.38;59.30
75471;HTU21D;64051;46.320;48.028;2023-09-19T06:37:45;22.42;59.30
75471;HTU21D;64051;46.320;48.028;2023-09-19T06:40:12;22.48;59.26
75471;HTU21D;64051;46.320;48.028;2023-09-19T06:42:43;22.56;59.11
75471;HTU21D;64051;46.320;48.028;2023-09-19T06:45:11;22.61;59.03
75471;HTU21D;64051;46.320;48.028;2023-09-19T06:47:39;22.69;58.91
75471;HTU21D;64051;46.320;48.028;2023-09-19T06:50:06;22.76;58.78
75471;HTU21D;64051;46.320;48.028;2023-09-19T06:52:35;22.84;58.60
75471;HTU21D;64051;46.320;48.028;2023-09-19T06:55:01;22.92;58.51
75471;HTU21D;64051;46.320;48.028;2023-09-19T06:57:29;23.01;58.45
75471;HTU21D;64051;46.320;48.028;2023-09-19T06:59:56;23.12;58.42
75471;HTU21D;64051;46.320;48.028;2023-09-19T07:02:23;23.25;58.27
75471;HTU21D;64051;46.320;48.028;2023-09-19T07:04:53;23.35;58.10
75471;HTU21D;64051;46.320;48.028;2023-09-19T07:07:22;23.43;57.77
75471;HTU21D;64051;46.320;48.028;2023-09-19T08:48:24;25.57;55.97
75471;HTU21D;64051;46.320;48.028;2023-09-19T08:50:52;25.67;55.99
75471;HTU21D;64051;46.320;48.028;2023-09-19T08:53:38;25.84;55.31
75471;HTU21D;64051;46.320;48.028;2023-09-19T08:56:10;25.97;55.09
75471;HTU21D;64051;46.320;48.028;2023-09-19T08:58:44;26.11;54.69
75471;HTU21D;64051;46.320;48.028;2023-09-19T09:01:15;26.28;54.46
75471;HTU21D;64051;46.320;48.028;2023-09-19T09:03:52;26.41;53.79
75471;HTU21D;64051;46.320;48.028;2023-09-19T09:06:23;26.47;53.68
75471;HTU21D;64051;46.320;48.028;2023-09-19T09:08:59;26.51;53.39
75471;HTU21D;64051;46.320;48.028;2023-09-19T09:11:26;26.52;53.17
75471;HTU21D;64051;46.320;48.028;2023-09-19T09:13:58;26.55;52.98
75471;HTU21D;64051;46.320;48.028;2023-09-19T09:16:30;26.57;52.48
75471;HTU21D;64051;46.320;48.028;2023-09-19T09:18:58;26.55;52.55
75471;HTU21D;64051;46.320;48.028;2023-09-19T09:21:28;26.54;52.29
75471;HTU21D;64051;46.320;48.028;2023-09-19T09:23:55;26.54;52.27
75471;HTU21D;64051;46.320;48.028;2023-09-19T09:26:41;26.58;51.69
75471;HTU21D;64051;46.320;48.028;2023-09-19T09:29:14;26.60;51.82
75471;HTU21D;64051;46.320;48.028;2023-09-19T09:31:45;26.65;51.48
75471;HTU21D;64051;46.320;48.028;2023-09-19T09:34:15;26.72;51.33
75471;HTU21D;64051;46.320;48.028;2023-09-19T09:36:48;26.80;50.89
75471;HTU21D;64051;46.320;48.028;2023-09-19T09:39:33;26.86;50.60
75471;HTU21D;64051;46.320;48.028;2023-09-19T09:42:03;26.89;50.63
75471;HTU21D;64051;46.320;48.028;2023-09-19T09:44:38;26.95;50.43
75471;HTU21D;64051;46.320;48.028;2023-09-19T09:47:08;26.96;50.23
75471;HTU21D;64051;46.320;48.028;2023-09-19T09:49:52;26.96;50.08
75471;HTU21D;64051;46.320;48.028;2023-09-19T09:52:46;26.96;49.64
75471;HTU21D;64051;46.320;48.028;2023-09-19T09:55:18;26.97;49.88
75471;HTU21D;64051;46.320;48.028;2023-09-19T09:58:18;27.00;49.40
75471;HTU21D;64051;46.320;48.028;2023-09-19T10:01:07;27.10;49.26
75471;HTU21D;64051;46.320;48.028;2023-09-19T10:03:43;27.15;49.43
75471;HTU21D;64051;46.320;48.028;2023-09-19T10:06:16;27.26;49.18
75471;HTU21D;64051;46.320;48.028;2023-09-19T10:09:08;27.37;48.74
75471;HTU21D;64051;46.320;48.028;2023-09-19T10:11:45;27.39;48.79
75471;HTU21D;64051;46.320;48.028;2023-09-19T10:14:16;27.31;48.60
75471;HTU21D;64051;46.320;48.028;2023-09-19T10:16:53;27.15;48.62
75471;HTU21D;64051;46.320;48.028;2023-09-19T10:19:55;27.09;48.52
75471;HTU21D;64051;46.320;48.028;2023-09-19T10:22:29;27.14;48.86
75471;HTU21D;64051;46.320;48.028;2023-09-19T10:25:08;27.24;48.76
75471;HTU21D;64051;46.320;48.028;2023-09-19T10:27:47;27.38;48.45
75471;HTU21D;64051;46.320;48.028;2023-09-19T10:30:20;27.49;48.29
75471;HTU21D;64051;46.320;48.028;2023-09-19T10:32:59;27.56;47.76
75471;HTU21D;64051;46.320;48.028;2023-09-19T10:35:32;27.59;47.76
75471;HTU21D;64051;46.320;48.028;2023-09-19T10:38:12;27.65;47.55
75471;HTU21D;64051;46.320;48.028;2023-09-19T10:40:39;27.68;47.41
75471;HTU21D;64051;46.320;48.028;2023-09-19T10:43:17;27.67;46.96
75471;HTU21D;64051;46.320;48.028;2023-09-19T10:45:49;27.65;46.80
75471;HTU21D;64051;46.320;48.028;2023-09-19T10:48:21;27.65;46.78
75471;HTU21D;64051;46.320;48.028;2023-09-19T10:51:16;27.67;46.22
75471;HTU21D;64051;46.320;48.028;2023-09-19T10:54:18;27.63;45.95
75471;HTU21D;64051;46.320;48.028;2023-09-19T10:57:01;27.63;46.13
75471;HTU21D;64051;46.320;48.028;2023-09-19T11:00:27;27.58;45.77
75471;HTU21D;64051;46.320;48.028;2023-09-19T11:05:41;27.55;46.02
75471;HTU21D;64051;46.320;48.028;2023-09-19T11:08:09;27.63;45.86
75471;HTU21D;64051;46.320;48.028;2023-09-19T11:10:59;27.68;45.25
75471;HTU21D;64051;46.320;48.028;2023-09-19T11:13:40;27.65;45.19
75471;HTU21D;64051;46.320;48.028;2023-09-19T11:16:18;27.59;45.03
75471;HTU21D;64051;46.320;48.028;2023-09-19T11:18:55;27.60;45.06
75471;HTU21D;64051;46.320;48.028;2023-09-19T11:26:51;27.65;44.93
75471;HTU21D;64051;46.320;48.028;2023-09-19T11:29:31;27.67;44.59
75471;HTU21D;64051;46.320;48.028;2023-09-19T11:32:05;27.68;44.76
75471;HTU21D;64051;46.320;48.028;2023-09-19T11:34:40;27.70;44.35
75471;HTU21D;64051;46.320;48.028;2023-09-19T11:40:13;27.63;43.93
75471;HTU21D;64051;46.320;48.028;2023-09-19T11:42:48;27.53;44.31
75471;HTU21D;64051;46.320;48.028;2023-09-19T11:48:47;27.35;44.33
75471;HTU21D;64051;46.320;48.028;2023-09-19T11:51:29;27.39;44.22
75471;HTU21D;64051;46.320;48.028;2023-09-19T11:54:11;27.46;44.28
75471;HTU21D;64051;46.320;48.028;2023-09-19T11:56:55;27.44;44.25
75471;HTU21D;64051;46.320;48.028;2023-09-19T11:59:29;27.36;44.06
75471;HTU21D;64051;46.320;48.028;2023-09-19T12:02:19;27.17;43.80
75471;HTU21D;64051;46.320;48.028;2023-09-19T12:05:08;26.95;44.13
75471;HTU21D;64051;46.320;48.028;2023-09-19T12:07:53;26.77;43.64
75471;HTU21D;64051;46.320;48.028;2023-09-19T12:10:21;26.65;44.06
75471;HTU21D;64051;46.320;48.028;2023-09-19T12:12:52;26.62;43.90
75471;HTU21D;64051;46.320;48.028;2023-09-19T12:15:29;26.60;43.92
75471;HTU21D;64051;46.320;48.028;2023-09-19T12:18:07;26.64;43.74
75471;HTU21D;64051;46.320;48.028;2023-09-19T12:20:44;26.69;43.61
75471;HTU21D;64051;46.320;48.028;2023-09-19T12:23:16;26.72;43.78
75471;HTU21D;64051;46.320;48.028;2023-09-19T12:25:44;26.77;43.70
75471;HTU21D;64051;46.320;48.028;2023-09-19T12:28:26;26.80;43.60
75471;HTU21D;64051;46.320;48.028;2023-09-19T12:30:56;26.79;43.59
75471;HTU21D;64051;46.320;48.028;2023-09-19T12:33:30;26.79;43.52
75471;HTU21D;64051;46.320;48.028;2023-09-19T12:36:03;26.78;43.45
75471;HTU21D;64051;46.320;48.028;2023-09-19T12:38:55;26.78;43.35
75471;HTU21D;64051;46.320;48.028;2023-09-19T12:41:33;26.76;43.18
75471;HTU21D;64051;46.320;48.028;2023-09-19T12:44:03;26.71;43.26
75471;HTU21D;64051;46.320;48.028;2023-09-19T12:46:35;26.65;43.30
75471;HTU21D;64051;46.320;48.028;2023-09-19T12:49:19;26.62;42.96
75471;HTU21D;64051;46.320;48.028;2023-09-19T12:51:51;26.54;43.19
75471;HTU21D;64051;46.320;48.028;2023-09-19T12:54:44;26.38;43.19
75471;HTU21D;64051;46.320;48.028;2023-09-19T12:57:26;26.25;42.87
75471;HTU21D;64051;46.320;48.028;2023-09-19T13:00:03;26.12;43.28
75471;HTU21D;64051;46.320;48.028;2023-09-19T13:05:55;25.96;43.32
75471;HTU21D;64051;46.320;48.028;2023-09-19T13:08:28;25.84;43.09
75471;HTU21D;64051;46.320;48.028;2023-09-19T13:11:14;25.67;43.00
75471;HTU21D;64051;46.320;48.028;2023-09-19T13:13:50;25.51;43.43
75471;HTU21D;64051;46.320;48.028;2023-09-19T13:16:59;25.35;43.21
75471;HTU21D;64051;46.320;48.028;2023-09-19T13:19:46;25.21;43.42
75471;HTU21D;64051;46.320;48.028;2023-09-19T13:22:40;25.08;43.39
75471;HTU21D;64051;46.320;48.028;2023-09-19T13:25:35;24.95;43.50
75471;HTU21D;64051;46.320;48.028;2023-09-19T13:28:11;24.85;43.68
75471;HTU21D;64051;46.320;48.028;2023-09-19T13:30:40;24.73;43.84
75471;HTU21D;64051;46.320;48.028;2023-09-19T13:33:15;24.62;43.87
75471;HTU21D;64051;46.320;48.028;2023-09-19T13:35:52;24.54;43.93
75471;HTU21D;64051;46.320;48.028;2023-09-19T13:38:25;24.47;43.85
75471;HTU21D;64051;46.320;48.028;2023-09-19T13:41:01;24.42;43.98
75471;HTU21D;64051;46.320;48.028;2023-09-19T13:43:34;24.39;44.04
75471;HTU21D;64051;46.320;48.028;2023-09-19T13:46:07;24.38;43.97
75471;HTU21D;64051;46.320;48.028;2023-09-19T13:48:34;24.35;44.09
75471;HTU21D;64051;46.320;48.028;2023-09-19T13:51:07;24.35;43.95
75471;HTU21D;64051;46.320;48.028;2023-09-19T13:53:38;24.33;44.08
75471;HTU21D;64051;46.320;48.028;2023-09-19T13:56:10;24.30;44.00
75471;HTU21D;64051;46.320;48.028;2023-09-19T13:58:39;24.27;44.09
75471;HTU21D;64051;46.320;48.028;2023-09-19T14:01:08;24.24;44.06
75471;HTU21D;64051;46.320;48.028;2023-09-19T14:03:45;24.17;44.00
75471;HTU21D;64051;46.320;48.028;2023-09-19T14:06:16;24.10;44.10
75471;HTU21D;64051;46.320;48.028;2023-09-19T14:08:44;24.01;44.14
75471;HTU21D;64051;46.320;48.028;2023-09-19T14:11:25;23.89;44.25
75471;HTU21D;64051;46.320;48.028;2023-09-19T14:13:52;23.79;44.33
75471;HTU21D;64051;46.320;48.028;2023-09-19T14:16:19;23.66;44.42
75471;HTU21D;64051;46.320;48.028;2023-09-19T14:18:56;23.56;44.42
75471;HTU21D;64051;46.320;48.028;2023-09-19T14:21:26;23.43;44.64
75471;HTU21D;64051;46.320;48.028;2023-09-19T14:23:56;23.31;44.74
75471;HTU21D;64051;46.320;48.028;2023-09-19T14:26:22;23.18;44.84
75471;HTU21D;64051;46.320;48.028;2023-09-19T14:28:50;23.07;44.96
75471;HTU21D;64051;46.320;48.028;2023-09-19T14:31:19;22.93;45.08
75471;HTU21D;64051;46.320;48.028;2023-09-19T14:33:52;22.81;45.21
75471;HTU21D;64051;46.320;48.028;2023-09-19T14:36:28;22.66;45.35
75471;HTU21D;64051;46.320;48.028;2023-09-19T14:38:58;22.50;45.45
75471;HTU21D;64051;46.320;48.028;2023-09-19T14:41:27;22.35;45.75
75471;HTU21D;64051;46.320;48.028;2023-09-19T14:43:58;22.17;45.93
75471;HTU21D;64051;46.320;48.028;2023-09-19T14:46:26;22.02;46.13
75471;HTU21D;64051;46.320;48.028;2023-09-19T14:48:53;21.87;46.27
75471;HTU21D;64051;46.320;48.028;2023-09-19T14:51:29;21.73;46.41
75471;HTU21D;64051;46.320;48.028;2023-09-19T14:54:05;21.55;46.64
75471;HTU21D;64051;46.320;48.028;2023-09-19T14:56:41;21.42;46.85
75471;HTU21D;64051;46.320;48.028;2023-09-19T14:59:07;21.27;47.03
75471;HTU21D;64051;46.320;48.028;2023-09-19T15:01:34;21.15;47.23
75471;HTU21D;64051;46.320;48.028;2023-09-19T15:04:01;21.01;47.40
75471;HTU21D;64051;46.320;48.028;2023-09-19T15:06:27;20.88;47.57
75471;HTU21D;64051;46.320;48.028;2023-09-19T15:08:56;20.76;47.73
75471;HTU21D;64051;46.320;48.028;2023-09-19T15:11:26;20.63;47.88
75471;HTU21D;64051;46.320;48.028;2023-09-19T15:13:58;20.51;47.99
75471;HTU21D;64051;46.320;48.028;2023-09-19T15:16:25;20.39;48.16
75471;HTU21D;64051;46.320;48.028;2023-09-19T15:18:54;20.30;48.35
75471;HTU21D;64051;46.320;48.028;2023-09-19T15:21:22;20.18;48.47
75471;HTU21D;64051;46.320;48.028;2023-09-19T15:23:49;20.09;48.60
75471;HTU21D;64051;46.320;48.028;2023-09-19T15:26:15;19.99;48.70
75471;HTU21D;64051;46.320;48.028;2023-09-19T15:28:53;19.89;48.79
75471;HTU21D;64051;46.320;48.028;2023-09-19T15:31:23;19.79;48.94
75471;HTU21D;64051;46.320;48.028;2023-09-19T15:33:49;19.71;49.09
75471;HTU21D;64051;46.320;48.028;2023-09-19T15:36:20;19.62;49.22
75471;HTU21D;64051;46.320;48.028;2023-09-19T15:39:03;19.54;49.43
75471;HTU21D;64051;46.320;48.028;2023-09-19T15:41:40;19.45;49.54
75471;HTU21D;64051;46.320;48.028;2023-09-19T15:44:19;19.37;49.72
75471;HTU21D;64051;46.320;48.028;2023-09-19T15:46:48;19.28;49.83
75471;HTU21D;64051;46.320;48.028;2023-09-19T15:49:23;19.20;49.96
75471;HTU21D;64051;46.320;48.028;2023-09-19T15:51:53;19.11;50.11
75471;HTU21D;64051;46.320;48.028;2023-09-19T15:54:19;19.06;50.25
75471;HTU21D;64051;46.320;48.028;2023-09-19T15:56:59;18.96;50.45
75471;HTU21D;64051;46.320;48.028;2023-09-19T15:59:29;18.89;50.54
75471;HTU21D;64051;46.320;48.028;2023-09-19T16:01:58;18.81;50.66
75471;HTU21D;64051;46.320;48.028;2023-09-19T16:04:27;18.74;50.80
75471;HTU21D;64051;46.320;48.028;2023-09-19T16:07:05;18.69;50.91
75471;HTU21D;64051;46.320;48.028;2023-09-19T16:09:43;18.63;51.04
75471;HTU21D;64051;46.320;48.028;2023-09-19T16:12:18;18.56;51.15
75471;HTU21D;64051;46.320;48.028;2023-09-19T16:14:52;18.52;51.28
75471;HTU21D;64051;46.320;48.028;2023-09-19T16:17:20;18.47;51.37
75471;HTU21D;64051;46.320;48.028;2023-09-19T16:19:59;18.38;51.49
75471;HTU21D;64051;46.320;48.028;2023-09-19T16:22:27;18.34;51.53
75471;HTU21D;64051;46.320;48.028;2023-09-19T16:24:59;18.26;51.69
75471;HTU21D;64051;46.320;48.028;2023-09-19T16:27:28;18.22;51.85
75471;HTU21D;64051;46.320;48.028;2023-09-19T16:30:03;18.20;51.91
75471;HTU21D;64051;46.320;48.028;2023-09-19T16:32:42;18.14;51.99
75471;HTU21D;64051;46.320;48.028;2023-09-19T16:35:15;18.10;52.08
75471;HTU21D;64051;46.320;48.028;2023-09-19T16:37:48;18.06;52.22
75471;HTU21D;64051;46.320;48.028;2023-09-19T16:40:29;17.99;52.30
75471;HTU21D;64051;46.320;48.028;2023-09-19T16:42:55;17.95;52.42
75471;HTU21D;64051;46.320;48.028;2023-09-19T16:45:25;17.89;52.56
75471;HTU21D;64051;46.320;48.028;2023-09-19T16:47:59;17.85;52.70
75471;HTU21D;64051;46.320;48.028;2023-09-19T16:50:34;17.81;52.89
75471;HTU21D;64051;46.320;48.028;2023-09-19T16:53:04;17.78;52.94
75471;HTU21D;64051;46.320;48.028;2023-09-19T16:55:48;17.77;53.00
75471;HTU21D;64051;46.320;48.028;2023-09-19T16:58:16;17.76;53.06
75471;HTU21D;64051;46.320;48.028;2023-09-19T17:00:46;17.75;53.13
75471;HTU21D;64051;46.320;48.028;2023-09-19T17:03:22;17.72;53.14
75471;HTU21D;64051;46.320;48.028;2023-09-19T17:05:57;17.69;53.23
75471;HTU21D;64051;46.320;48.028;2023-09-19T17:08:26;17.67;53.28
75471;HTU21D;64051;46.320;48.028;2023-09-19T17:11:05;17.64;53.49
75471;HTU21D;64051;46.320;48.028;2023-09-19T17:13:50;17.61;53.49
75471;HTU21D;64051;46.320;48.028;2023-09-19T17:16:23;17.58;53.62
75471;HTU21D;64051;46.320;48.028;2023-09-19T17:19:07;17.54;53.84
75471;HTU21D;64051;46.320;48.028;2023-09-19T17:21:34;17.52;53.81
75471;HTU21D;64051;46.320;48.028;2023-09-19T17:24:00;17.48;53.91
75471;HTU21D;64051;46.320;48.028;2023-09-19T17:26:34;17.45;54.01
75471;HTU21D;64051;46.320;48.028;2023-09-19T17:29:04;17.41;54.13
75471;HTU21D;64051;46.320;48.028;2023-09-19T17:31:35;17.38;54.23
75471;HTU21D;64051;46.320;48.028;2023-09-19T17:34:08;17.33;54.33
75471;HTU21D;64051;46.320;48.028;2023-09-19T17:36:43;17.30;54.43
75471;HTU21D;64051;46.320;48.028;2023-09-19T17:39:14;17.25;54.55
75471;HTU21D;64051;46.320;48.028;2023-09-19T17:41:41;17.21;54.67
75471;HTU21D;64051;46.320;48.028;2023-09-19T17:44:10;17.19;54.78
75471;HTU21D;64051;46.320;48.028;2023-09-19T17:46:37;17.17;54.87
75471;HTU21D;64051;46.320;48.028;2023-09-19T17:49:15;17.10;54.97